Portada
METAR-TAF:

METAR-TAF

Aeropuertos :

Huesca, España

Aeropuerto de Huesca-Pirineos

latitud: 42-04-32N, longitud: 0-18-58W, altitud: 539 m

Observación

El informe se hizo hace 15 minutos, a las 09:00 UTC
Viento 4 kt del este
Temperatura 19°C
Humedad 43%
Presión 1017 hPa
Visibilidad 10 km o más
sin nubes por debajo de 1500 m y sin presencia de cumulonimbus.

METAR: LEHC 240900Z 10004KT CAVOK 19/06 Q1017

Hora: 11:15 (09:15 UTC)

Pronóstico

El informe se hizo hace 1 hora y 15 minutos, a las 08:00 UTC
Pronóstico válido del 24 a las 09 UTC al 25 a las 09 UTC
Viento 9 kt del sureste
Visibilidad 10 km o más
sin nubes por debajo de 1500 m y sin presencia de cumulonimbus.
Probabilidad 30% :
Temporalmente
del 24 a las 18 UTC al 24 a las 22 UTC
Viento 10 kt del este-sureste con ráfagas de 20 kt

TAF: LEHC 240800Z 2409/2509 14009KT CAVOK TX24/2413Z TN05/2506Z PROB30 TEMPO 2418/2422 12010G20KT

Observaciones y pronósticos meteorológicos de más de 4000 aeropuertos (mensajes METAR y TAF).

Los puntos amarillos y rojos representan las estaciones disponibles.

Ponga el ratón en el punto deseado para ver el nombre de la estación.

Haga clic para ver las observaciones y los pronósticos meteorológicos.

Para cambiar el mapa : haga clic en los botones verdes con una cruz de color negro para hacer un zoom, en el botón verde con un guión para alejar o en las flechas verdes para mapas adyacentes.


METAR-TAF: